East Saint Johnsbury, Vermont
Current Conditions -  °F | °C
As of 6:52 PM on Monday 20 Oct 2014 (Local Time) from KHIE Reporting Station
Overcast Overcast  
Wind Chill: 45°   Ceiling: 6000
Heat Index: 45°   Visibility: 10mi
Dew Point: 33°   Wind: 0mph
Humidity: 63%   Direction: NA
Pressure: 29.94"   Gusts: NA
Location:  44.44°N, 71.95°W
Report Text: KHIE 202252Z AUTO 00000KT 10SM OVC060 07/01 A2994 RMK AO2 SLP150 T00720006
Loading
Personal Weather Stations






























Interactive Weather Map
Tropical Storm Tracking
New forecast layout! Learn more

10-Day Weather Forecast

Advertisements
Track Severe Weather on mobile